createdAt,value
2023-11-24T00:02:43.105Z,100.00
2023-11-24T00:05:48.281Z,100.00
2023-11-24T00:08:51.661Z,100.00
2023-11-24T00:11:55.042Z,100.00
2023-11-24T00:14:58.463Z,100.00
2023-11-24T00:18:03.052Z,100.00
2023-11-24T00:21:10.967Z,100.00
2023-11-24T00:24:15.505Z,100.00
2023-11-24T00:27:21.093Z,100.00
2023-11-24T00:30:25.690Z,100.00
2023-11-24T00:33:31.472Z,100.00
2023-11-24T00:36:35.777Z,100.00
2023-11-24T00:39:39.584Z,100.00
2023-11-24T00:42:44.497Z,100.00
2023-11-24T00:45:47.839Z,100.00
2023-11-24T00:48:53.701Z,100.00
2023-11-24T00:51:57.499Z,100.00
2023-11-24T00:55:01.329Z,100.00
2023-11-24T00:58:05.485Z,100.00
2023-11-24T01:01:10.635Z,100.00
2023-11-24T01:04:16.342Z,100.00
2023-11-24T01:07:20.056Z,100.00
2023-11-24T01:10:23.837Z,100.00
2023-11-24T01:13:32.667Z,100.00
2023-11-24T01:16:35.903Z,100.00
2023-11-24T01:19:41.893Z,100.00
2023-11-24T01:22:47.237Z,100.00
2023-11-24T01:25:51.698Z,100.00
2023-11-24T01:28:55.397Z,100.00
2023-11-24T01:31:59.337Z,100.00
2023-11-24T01:35:03.429Z,100.00
2023-11-24T01:38:06.982Z,100.00
2023-11-24T01:41:11.133Z,100.00
2023-11-24T01:44:14.836Z,100.00
2023-11-24T01:47:20.527Z,100.00
2023-11-24T01:50:24.335Z,100.00
2023-11-24T01:53:27.876Z,100.00
2023-11-24T01:56:32.298Z,100.00
2023-11-24T01:59:36.966Z,100.00
2023-11-24T02:02:43.341Z,100.00
2023-11-24T02:05:47.481Z,100.00
2023-11-24T02:08:51.080Z,100.00
2023-11-24T02:11:54.812Z,100.00
2023-11-24T02:14:58.442Z,100.00
2023-11-24T02:18:02.011Z,100.00
2023-11-24T02:21:06.646Z,100.00
2023-11-24T02:24:10.425Z,100.00
2023-11-24T02:27:14.828Z,100.00
2023-11-24T02:30:19.286Z,100.00
2023-11-24T02:33:24.489Z,100.00
2023-11-24T02:36:31.703Z,100.00
2023-11-24T02:39:35.914Z,100.00
2023-11-24T02:42:41.368Z,100.00
2023-11-24T02:45:44.787Z,100.00
2023-11-24T02:48:49.299Z,100.00
2023-11-24T02:51:52.478Z,100.00
2023-11-24T02:54:56.313Z,100.00
2023-11-24T02:57:59.406Z,100.00
2023-11-24T03:01:03.161Z,100.00
2023-11-24T03:04:07.034Z,100.00
2023-11-24T03:07:11.873Z,100.00
2023-11-24T03:10:18.387Z,100.00
2023-11-24T03:13:27.200Z,100.00
2023-11-24T03:16:34.607Z,100.00
2023-11-24T03:19:38.448Z,100.00
2023-11-24T03:22:44.341Z,100.00
2023-11-24T03:25:50.020Z,100.00
2023-11-24T03:28:54.125Z,100.00
2023-11-24T03:31:58.331Z,100.00
2023-11-24T03:35:02.013Z,100.00
2023-11-24T03:38:05.688Z,100.00
2023-11-24T03:41:09.145Z,100.00
2023-11-24T03:44:12.999Z,100.00
2023-11-24T03:47:17.459Z,100.00
2023-11-24T03:50:20.994Z,100.00
2023-11-24T03:53:26.980Z,100.00
2023-11-24T03:56:30.583Z,100.00
2023-11-24T03:59:33.593Z,100.00
2023-11-24T04:02:37.266Z,100.00
2023-11-24T04:05:40.997Z,100.00
2023-11-24T04:08:45.060Z,100.00
2023-11-24T04:11:49.980Z,100.00
2023-11-24T04:14:53.839Z,100.00
2023-11-24T04:17:58.088Z,100.00
2023-11-24T04:21:02.357Z,100.00
2023-11-24T04:24:07.297Z,100.00
2023-11-24T04:27:12.281Z,100.00
2023-11-24T04:30:21.011Z,100.00
2023-11-24T04:33:24.262Z,100.00
2023-11-24T04:40:16.174Z,100.00
2023-11-24T04:43:25.614Z,100.00
2023-11-24T04:46:44.223Z,100.00
2023-11-24T04:49:49.970Z,100.00
2023-11-24T04:52:53.449Z,100.00
2023-11-24T04:55:57.957Z,100.00
2023-11-24T04:59:01.138Z,100.00
2023-11-24T05:02:05.020Z,100.00
2023-11-24T05:05:09.433Z,100.00
2023-11-24T05:08:13.375Z,100.00
2023-11-24T05:11:17.753Z,100.00
2023-11-24T05:14:21.336Z,100.00
2023-11-24T05:17:32.359Z,100.00
2023-11-24T05:20:36.085Z,100.00
2023-11-24T05:23:39.552Z,100.00
2023-11-24T05:26:45.055Z,100.00
2023-11-24T05:29:49.268Z,100.00
2023-11-24T05:32:53.255Z,100.00
2023-11-24T05:35:58.799Z,100.00
2023-11-24T05:39:02.694Z,100.00
2023-11-24T05:42:07.838Z,100.00
2023-11-24T05:45:13.928Z,100.00
2023-11-24T05:48:19.001Z,100.00
2023-11-24T05:51:26.342Z,100.00
2023-11-24T05:54:32.627Z,100.00
2023-11-24T05:57:36.590Z,100.00
2023-11-24T06:00:40.246Z,100.00
2023-11-24T06:03:43.736Z,100.00
2023-11-24T06:06:48.454Z,100.00
2023-11-24T06:09:52.828Z,100.00
2023-11-24T06:12:56.391Z,100.00
2023-11-24T06:16:00.143Z,100.00
2023-11-24T06:19:03.678Z,100.00
2023-11-24T06:22:07.177Z,100.00
2023-11-24T06:25:16.231Z,100.00
2023-11-24T06:28:20.503Z,100.00
2023-11-24T06:31:23.931Z,100.00
2023-11-24T06:34:29.716Z,100.00
2023-11-24T06:37:32.829Z,100.00
2023-11-24T06:40:36.979Z,100.00
2023-11-24T06:43:40.546Z,100.00
2023-11-24T06:46:44.214Z,100.00
2023-11-24T06:49:47.812Z,100.00
2023-11-24T06:52:51.295Z,100.00
2023-11-24T06:55:54.732Z,100.00
2023-11-24T06:59:01.618Z,100.00
2023-11-24T07:02:08.391Z,100.00
2023-11-24T07:05:12.537Z,100.00
2023-11-24T07:08:18.236Z,100.00
2023-11-24T07:11:26.040Z,100.00
2023-11-24T07:14:31.302Z,100.00
2023-11-24T07:17:35.057Z,100.00
2023-11-24T07:20:38.165Z,100.00
2023-11-24T07:23:43.170Z,100.00
2023-11-24T07:26:46.772Z,100.00
2023-11-24T07:29:50.277Z,100.00
2023-11-24T07:32:53.827Z,100.00
2023-11-24T07:35:57.394Z,100.00
2023-11-24T07:39:00.721Z,100.00
2023-11-24T07:42:06.165Z,100.00
2023-11-24T07:45:11.685Z,100.00
2023-11-24T07:48:16.707Z,100.00
2023-11-24T07:51:20.210Z,100.00
2023-11-24T07:54:24.317Z,100.00
2023-11-24T07:57:28.386Z,100.00
2023-11-24T08:00:33.327Z,100.00
2023-11-24T08:03:37.476Z,100.00
2023-11-24T08:06:41.708Z,100.00
2023-11-24T08:09:46.369Z,100.00
2023-11-24T08:12:49.621Z,100.00
2023-11-24T08:15:54.665Z,100.00
2023-11-24T08:18:57.887Z,100.00
2023-11-24T08:22:01.284Z,100.00
2023-11-24T08:25:05.776Z,100.00
2023-11-24T08:28:12.489Z,96.13
2023-11-24T08:31:20.898Z,96.46
2023-11-24T08:34:24.339Z,100.00
2023-11-24T08:37:29.032Z,100.00
2023-11-24T08:40:35.088Z,99.69
2023-11-24T08:43:39.324Z,96.83
2023-11-24T08:46:44.132Z,90.70
2023-11-24T08:49:47.490Z,85.64
2023-11-24T08:52:53.651Z,85.90
2023-11-24T08:55:59.172Z,80.03
2023-11-24T08:59:04.762Z,78.98
2023-11-24T09:02:12.202Z,77.32
2023-11-24T09:05:15.806Z,76.65
2023-11-24T09:08:23.243Z,76.73
2023-11-24T09:11:28.638Z,77.72
2023-11-24T09:14:34.246Z,80.02
2023-11-24T09:17:37.790Z,78.95
2023-11-24T09:20:41.665Z,78.01
2023-11-24T09:23:45.692Z,80.41
2023-11-24T09:26:48.890Z,80.31
2023-11-24T09:29:52.545Z,78.47
2023-11-24T09:32:55.901Z,78.81
2023-11-24T09:35:59.517Z,79.08
2023-11-24T09:39:02.676Z,77.14
2023-11-24T09:42:10.660Z,76.67
2023-11-24T09:45:18.351Z,75.75
2023-11-24T09:48:24.288Z,76.35
2023-11-24T09:51:27.890Z,77.38
2023-11-24T09:54:33.109Z,77.44
2023-11-24T09:57:36.566Z,79.23
2023-11-24T10:00:43.559Z,80.27
2023-11-24T10:03:49.509Z,78.80
2023-11-24T10:06:55.513Z,78.73
2023-11-24T10:09:58.934Z,80.12
2023-11-24T10:13:04.296Z,80.86
2023-11-24T10:16:09.373Z,80.76
2023-11-24T10:19:19.649Z,79.82
2023-11-24T10:22:28.555Z,78.84
2023-11-24T10:25:35.528Z,78.18
2023-11-24T10:28:39.230Z,80.21
2023-11-24T10:31:45.561Z,79.62
2023-11-24T10:34:49.130Z,79.39
2023-11-24T10:37:53.624Z,80.81
2023-11-24T10:40:59.685Z,81.85
2023-11-24T10:44:05.303Z,82.05
2023-11-24T10:47:11.794Z,78.92
2023-11-24T10:50:21.350Z,80.24
2023-11-24T10:53:37.271Z,79.85
2023-11-24T10:56:44.020Z,80.82
2023-11-24T10:59:48.827Z,79.52
2023-11-24T11:02:56.525Z,76.72
2023-11-24T11:06:46.930Z,74.90
2023-11-24T11:09:52.726Z,76.66
2023-11-24T11:12:59.171Z,79.01
2023-11-24T11:16:05.818Z,79.18
2023-11-24T11:19:40.238Z,79.65
2023-11-24T11:22:48.697Z,79.63
2023-11-24T11:25:54.690Z,80.10
2023-11-24T11:28:59.712Z,82.67
2023-11-24T11:32:11.941Z,83.09
2023-11-24T11:35:20.901Z,82.32
2023-11-24T11:38:49.522Z,81.16
2023-11-24T11:41:52.923Z,81.89
2023-11-24T11:45:11.835Z,81.64
2023-11-24T11:48:15.671Z,82.47
2023-11-24T11:51:23.490Z,81.17
2023-11-24T11:54:28.584Z,79.94
2023-11-24T11:57:32.477Z,79.75
2023-11-24T12:00:39.489Z,81.31
2023-11-24T12:03:44.338Z,80.99
2023-11-24T12:06:52.864Z,80.70
2023-11-24T12:09:56.507Z,80.95
2023-11-24T12:13:05.517Z,77.71
2023-11-24T12:16:09.973Z,77.51
2023-11-24T12:19:14.728Z,76.18
2023-11-24T12:22:20.048Z,77.28
2023-11-24T12:25:24.100Z,76.92
2023-11-24T12:28:27.946Z,77.37
2023-11-24T12:31:38.596Z,78.66
2023-11-24T12:34:46.540Z,79.41
2023-11-24T12:37:53.591Z,79.14
2023-11-24T12:40:57.315Z,79.33
2023-11-24T12:44:00.947Z,78.08
2023-11-24T12:47:20.224Z,78.00
2023-11-24T12:50:27.369Z,79.30
2023-11-24T12:53:34.421Z,80.75
2023-11-24T12:56:37.574Z,81.05
2023-11-24T12:59:41.207Z,81.22
2023-11-24T13:02:46.421Z,81.44
2023-11-24T13:05:51.174Z,82.43
2023-11-24T13:08:55.753Z,81.81
2023-11-24T13:12:05.240Z,82.43
2023-11-24T13:15:16.139Z,82.24
2023-11-24T13:18:20.684Z,83.55
2023-11-24T13:21:24.912Z,84.08
2023-11-24T13:24:30.319Z,82.30
2023-11-24T13:27:35.990Z,82.69
2023-11-24T13:30:41.081Z,82.71
2023-11-24T13:33:45.452Z,82.65
2023-11-24T13:36:52.342Z,83.91
2023-11-24T13:39:57.301Z,84.17
2023-11-24T13:43:02.578Z,85.48
2023-11-24T13:46:08.551Z,86.65
2023-11-24T13:49:14.322Z,86.81
2023-11-24T13:52:21.208Z,89.09
2023-11-24T13:55:35.990Z,87.62
2023-11-24T13:58:41.770Z,88.48
2023-11-24T14:01:52.868Z,88.85
2023-11-24T14:04:59.062Z,89.42
2023-11-24T14:08:04.587Z,90.25
2023-11-24T14:11:09.941Z,90.89
2023-11-24T14:14:15.710Z,89.44
2023-11-24T14:17:21.206Z,90.56
2023-11-24T14:20:26.808Z,89.41
2023-11-24T14:23:33.236Z,89.70
2023-11-24T14:26:38.706Z,89.33
2023-11-24T14:29:44.217Z,86.91
2023-11-24T14:32:48.774Z,86.65
2023-11-24T14:35:56.631Z,86.32
2023-11-24T14:39:02.914Z,86.57
2023-11-24T14:42:08.309Z,85.14
2023-11-24T14:45:17.665Z,87.34
2023-11-24T14:48:23.066Z,88.35
2023-11-24T14:51:29.862Z,90.48
2023-11-24T14:54:35.091Z,89.69
2023-11-24T14:57:41.157Z,89.43
2023-11-24T15:00:45.823Z,88.21
2023-11-24T15:03:50.365Z,85.62
2023-11-24T15:06:56.273Z,86.49
2023-11-24T15:10:00.938Z,86.16
2023-11-24T15:13:09.620Z,84.72
2023-11-24T15:16:20.470Z,86.16
2023-11-24T15:19:28.734Z,84.33
2023-11-24T15:22:33.365Z,86.83
2023-11-24T15:25:49.738Z,89.47
2023-11-24T15:28:56.124Z,92.78
2023-11-24T15:32:01.655Z,96.29
2023-11-24T15:35:07.453Z,97.25
2023-11-24T15:38:22.629Z,98.17
2023-11-24T15:41:39.370Z,100.00
2023-11-24T15:44:46.142Z,100.00
2023-11-24T15:48:03.430Z,100.00
2023-11-24T15:51:25.709Z,100.00
2023-11-24T15:54:33.353Z,100.00
2023-11-24T15:57:40.013Z,100.00
2023-11-24T16:00:48.685Z,100.00
2023-11-24T16:03:53.660Z,100.00
2023-11-24T16:07:01.363Z,100.00
2023-11-24T16:10:16.709Z,100.00
2023-11-24T16:13:22.513Z,100.00
2023-11-24T16:16:28.805Z,100.00
2023-11-24T16:19:33.806Z,100.00
2023-11-24T16:22:39.000Z,100.00
2023-11-24T16:25:45.876Z,100.00
2023-11-24T16:28:50.752Z,100.00
2023-11-24T16:31:58.256Z,100.00
2023-11-24T16:35:09.684Z,100.00
2023-11-24T16:38:18.106Z,100.00
2023-11-24T16:41:24.376Z,100.00
2023-11-24T16:44:28.947Z,100.00
2023-11-24T16:47:38.770Z,100.00
2023-11-24T16:50:44.113Z,100.00
2023-11-24T16:53:51.600Z,100.00
2023-11-24T16:56:56.864Z,100.00
2023-11-24T17:00:07.950Z,100.00
2023-11-24T17:03:12.961Z,100.00
2023-11-24T17:06:19.886Z,100.00
2023-11-24T17:09:28.415Z,100.00
2023-11-24T17:12:34.421Z,100.00
2023-11-24T17:15:40.199Z,100.00
2023-11-24T17:18:45.745Z,100.00
2023-11-24T17:21:49.384Z,100.00
2023-11-24T17:24:53.205Z,100.00
2023-11-24T17:27:56.397Z,100.00
2023-11-24T17:31:02.816Z,100.00
2023-11-24T17:34:08.658Z,100.00
2023-11-24T17:37:12.290Z,100.00
2023-11-24T17:40:16.910Z,100.00
2023-11-24T17:43:20.661Z,100.00
2023-11-24T17:46:24.077Z,100.00
2023-11-24T17:49:28.202Z,100.00
2023-11-24T17:52:32.006Z,100.00
2023-11-24T17:55:36.337Z,100.00
2023-11-24T17:58:40.043Z,100.00
2023-11-24T18:01:45.107Z,100.00
2023-11-24T18:04:48.606Z,100.00
2023-11-24T18:07:52.113Z,100.00
2023-11-24T18:10:55.565Z,100.00
2023-11-24T18:14:01.974Z,100.00
2023-11-24T18:17:07.430Z,100.00
2023-11-24T18:20:15.694Z,100.00
2023-11-24T18:23:21.523Z,100.00
2023-11-24T18:26:26.885Z,100.00
2023-11-24T18:29:32.369Z,100.00
2023-11-24T18:32:37.521Z,100.00
2023-11-24T18:35:42.294Z,100.00
2023-11-24T18:38:47.020Z,100.00
2023-11-24T18:41:54.081Z,100.00
2023-11-24T18:44:58.395Z,100.00
2023-11-24T18:48:05.023Z,100.00
2023-11-24T18:51:13.062Z,100.00
2023-11-24T18:54:19.008Z,100.00
2023-11-24T18:57:23.950Z,100.00
2023-11-24T19:00:30.320Z,100.00
2023-11-24T19:03:35.091Z,100.00
2023-11-24T19:06:41.221Z,100.00
2023-11-24T19:09:47.653Z,100.00
2023-11-24T19:12:55.226Z,100.00
2023-11-24T19:16:01.078Z,100.00
2023-11-24T19:19:06.301Z,100.00
2023-11-24T19:25:16.512Z,100.00
2023-11-24T19:28:22.829Z,100.00
2023-11-24T19:31:31.864Z,100.00
2023-11-24T19:34:38.050Z,100.00
2023-11-24T19:37:46.247Z,100.00
2023-11-24T19:40:51.492Z,100.00
2023-11-24T19:43:58.242Z,100.00
2023-11-24T19:47:02.892Z,100.00
2023-11-24T19:50:08.666Z,100.00
2023-11-24T19:53:14.124Z,100.00
2023-11-24T19:56:19.868Z,100.00
2023-11-24T19:59:25.199Z,100.00
2023-11-24T20:02:31.175Z,100.00
2023-11-24T20:05:36.670Z,100.00
2023-11-24T20:08:42.396Z,100.00
2023-11-24T20:11:48.051Z,100.00
2023-11-24T20:14:53.366Z,100.00
2023-11-24T20:18:01.512Z,100.00
2023-11-24T20:21:06.722Z,100.00
2023-11-24T20:24:12.701Z,100.00
2023-11-24T20:27:18.186Z,100.00
2023-11-24T20:30:23.386Z,100.00
2023-11-24T20:33:30.354Z,100.00
2023-11-24T20:36:36.798Z,100.00
2023-11-24T20:39:43.506Z,100.00
2023-11-24T20:42:49.767Z,100.00
2023-11-24T20:45:54.471Z,100.00
2023-11-24T20:48:59.897Z,100.00
2023-11-24T20:52:07.402Z,100.00
2023-11-24T20:55:14.989Z,100.00
2023-11-24T20:58:20.094Z,100.00
2023-11-24T21:01:25.380Z,100.00
2023-11-24T21:04:28.918Z,100.00
2023-11-24T21:07:32.472Z,100.00
2023-11-24T21:10:35.752Z,100.00
2023-11-24T21:13:40.626Z,100.00
2023-11-24T21:16:44.015Z,100.00
2023-11-24T21:19:47.675Z,100.00
2023-11-24T21:22:51.146Z,100.00
2023-11-24T21:25:54.581Z,100.00
2023-11-24T21:28:58.036Z,100.00
2023-11-24T21:32:01.640Z,100.00
2023-11-24T21:35:05.235Z,100.00
2023-11-24T21:38:09.007Z,100.00
2023-11-24T21:41:19.311Z,100.00
2023-11-24T21:44:22.657Z,100.00
2023-11-24T21:47:25.928Z,100.00
2023-11-24T21:50:30.203Z,100.00
2023-11-24T21:53:33.474Z,100.00
2023-11-24T21:56:37.456Z,100.00
2023-11-24T21:59:42.404Z,100.00
2023-11-24T22:02:46.484Z,100.00
2023-11-24T22:05:49.825Z,100.00
2023-11-24T22:08:53.318Z,100.00
2023-11-24T22:11:56.696Z,100.00
2023-11-24T22:15:04.454Z,100.00
2023-11-24T22:18:08.130Z,100.00
2023-11-24T22:21:11.226Z,100.00
2023-11-24T22:24:14.801Z,100.00
2023-11-24T22:27:18.647Z,100.00
2023-11-24T22:30:22.273Z,100.00
2023-11-24T22:33:26.077Z,100.00
2023-11-24T22:36:29.554Z,100.00
2023-11-24T22:39:33.048Z,100.00
2023-11-24T22:42:36.650Z,100.00
2023-11-24T22:45:43.789Z,100.00
2023-11-24T22:48:48.588Z,100.00
2023-11-24T22:51:51.939Z,100.00
2023-11-24T22:54:57.132Z,100.00
2023-11-24T22:58:00.484Z,100.00
2023-11-24T23:01:06.578Z,100.00
2023-11-24T23:04:11.601Z,100.00
2023-11-24T23:07:16.897Z,100.00
2023-11-24T23:10:22.769Z,100.00
2023-11-24T23:13:30.667Z,100.00
2023-11-24T23:16:36.591Z,100.00
2023-11-24T23:19:42.196Z,100.00
2023-11-24T23:22:45.842Z,100.00
2023-11-24T23:25:49.733Z,100.00
2023-11-24T23:28:52.992Z,100.00
2023-11-24T23:31:56.652Z,100.00
2023-11-24T23:34:59.951Z,100.00
2023-11-24T23:38:04.537Z,100.00
2023-11-24T23:41:08.514Z,100.00
2023-11-24T23:44:12.220Z,100.00
2023-11-24T23:47:15.961Z,100.00
2023-11-24T23:50:30.291Z,100.00
2023-11-24T23:53:34.208Z,100.00
2023-11-24T23:56:37.870Z,100.00
2023-11-24T23:59:41.337Z,100.00
